Time;durP1;ratioP1;P1;durP2;ratioP2;P2;SDS_P1;SDS_P2;PMS_P1;PMS_P2;Temp;Humidity;BMP_temperature;BMP_pressure;BME280_temperature;BME280_humidity;BME280_pressure;Samples;Min_cycle;Max_cycle;Signal;HPM_P1;HPM_P2
2022/11/15 00:02:42;;;;;;;8.53;7.50;;;10.90;99.90;;;;;;5009033;28;20656;-77
2022/11/15 00:05:32;;;;;;;9.43;7.37;;;10.90;99.90;;;;;;5000822;28;20226;-77
2022/11/15 00:08:31;;;;;;;9.20;7.93;;;11.00;99.90;;;;;;5004496;28;20203;-77
2022/11/15 00:11:18;;;;;;;10.63;7.60;;;11.00;99.90;;;;;;5006449;28;20215;-77
2022/11/15 00:14:04;;;;;;;9.83;7.40;;;11.10;99.90;;;;;;5008594;28;20200;-77
2022/11/15 00:16:51;;;;;;;9.67;7.47;;;11.10;99.90;;;;;;5001789;28;20570;-77
2022/11/15 00:19:37;;;;;;;9.27;7.73;;;11.10;99.90;;;;;;5008988;28;20194;-78
2022/11/15 00:22:23;;;;;;;10.77;7.70;;;11.10;99.90;;;;;;5016240;28;20203;-78
2022/11/15 00:25:09;;;;;;;8.77;7.20;;;11.10;99.90;;;;;;5026280;28;20250;-77
2022/11/15 00:27:58;;;;;;;9.30;7.70;;;11.10;99.90;;;;;;5013575;28;20203;-77
2022/11/15 00:30:44;;;;;;;8.63;7.33;;;11.20;99.90;;;;;;5007024;28;20218;-77
2022/11/15 00:33:30;;;;;;;8.83;6.47;;;11.20;99.90;;;;;;5006684;28;20214;-77
2022/11/15 00:36:16;;;;;;;9.10;7.30;;;11.30;99.90;;;;;;5010660;28;20243;-77
2022/11/15 00:39:05;;;;;;;9.33;7.80;;;11.30;99.90;;;;;;5007946;28;20215;-77
2022/11/15 00:41:51;;;;;;;9.80;8.03;;;11.40;99.90;;;;;;5019449;28;20187;-77
2022/11/15 00:44:39;;;;;;;8.37;6.63;;;11.40;99.90;;;;;;5028119;28;20231;-77
2022/11/15 00:47:25;;;;;;;8.33;7.53;;;11.50;99.90;;;;;;5015101;28;20211;-77
2022/11/15 00:50:11;;;;;;;10.20;7.70;;;11.50;99.90;;;;;;5010487;28;20549;-77
2022/11/15 00:52:57;;;;;;;10.67;7.13;;;11.50;99.90;;;;;;5009071;28;20207;-77
2022/11/15 00:55:44;;;;;;;8.27;6.93;;;11.60;99.90;;;;;;5006802;28;20230;-77
2022/11/15 00:58:30;;;;;;;10.87;7.47;;;11.50;99.90;;;;;;5004151;28;20203;-77
2022/11/15 01:01:18;;;;;;;7.53;6.67;;;11.50;99.90;;;;;;5002447;28;20214;-77
2022/11/15 01:04:04;;;;;;;9.20;7.47;;;11.50;99.90;;;;;;5006072;28;20207;-77
2022/11/15 01:06:50;;;;;;;11.30;7.63;;;11.60;99.90;;;;;;5007594;28;20199;-81
2022/11/15 01:09:36;;;;;;;8.83;6.93;;;11.60;99.90;;;;;;4996268;28;20286;-77
2022/11/15 01:12:22;;;;;;;8.83;6.70;;;11.70;99.90;;;;;;5002283;28;20211;-77
2022/11/15 01:15:09;;;;;;;7.67;6.77;;;11.70;99.90;;;;;;5005565;28;20231;-77
2022/11/15 01:17:57;;;;;;;8.18;6.80;;;11.70;99.90;;;;;;5005380;28;20216;-77
2022/11/15 01:20:43;;;;;;;8.13;6.57;;;11.70;99.90;;;;;;5005853;28;20212;-77
2022/11/15 01:23:29;;;;;;;7.10;6.23;;;11.80;99.90;;;;;;5017043;28;20206;-76
2022/11/15 01:26:16;;;;;;;9.23;7.23;;;11.80;99.90;;;;;;5006495;28;20231;-75
2022/11/15 01:29:03;;;;;;;12.60;7.17;;;11.80;99.90;;;;;;5015007;28;20195;-76
2022/11/15 01:31:49;;;;;;;8.03;6.73;;;11.90;99.90;;;;;;5014413;28;20699;-76
2022/11/15 01:34:36;;;;;;;9.67;6.93;;;11.90;99.90;;;;;;5017225;28;20546;-76
2022/11/15 01:37:22;;;;;;;9.07;7.20;;;11.90;99.90;;;;;;5010853;28;20195;-75
2022/11/15 01:40:09;;;;;;;7.78;6.75;;;12.00;99.90;;;;;;5008324;28;20203;-75
2022/11/15 01:42:55;;;;;;;9.27;7.70;;;12.00;99.90;;;;;;5024731;28;20199;-76
2022/11/15 01:45:42;;;;;;;8.30;6.87;;;12.00;99.90;;;;;;5011957;28;20230;-75
2022/11/15 01:48:33;;;;;;;10.20;6.80;;;12.10;99.90;;;;;;5007898;28;20199;-75
2022/11/15 01:51:47;;;;;;;9.70;7.10;;;12.10;99.90;;;;;;5007676;28;20223;-76
2022/11/15 01:54:35;;;;;;;8.10;6.53;;;12.10;99.90;;;;;;5004953;28;20560;-77
2022/11/15 01:57:21;;;;;;;8.57;6.70;;;12.20;99.90;;;;;;5013380;28;20203;-75
2022/11/15 02:00:08;;;;;;;7.30;6.50;;;12.20;99.90;;;;;;5007949;28;20207;-76
2022/11/15 02:02:54;;;;;;;8.90;6.90;;;12.20;99.90;;;;;;5007246;28;20194;-76
2022/11/15 02:05:42;;;;;;;10.67;7.17;;;12.20;99.90;;;;;;5017791;28;20226;-75
2022/11/15 02:08:28;;;;;;;8.00;6.77;;;12.10;99.90;;;;;;5013568;28;20203;-76
2022/11/15 02:11:16;;;;;;;8.20;6.50;;;12.20;99.90;;;;;;5030608;28;20203;-76
2022/11/15 02:14:03;;;;;;;8.43;6.40;;;12.30;99.90;;;;;;5006996;28;20211;-75
2022/11/15 02:17:00;;;;;;;8.77;6.68;;;12.20;99.90;;;;;;5002542;28;20664;-76
2022/11/15 02:20:19;;;;;;;7.13;6.30;;;12.30;99.90;;;;;;5006910;28;20199;-76
2022/11/15 02:23:39;;;;;;;8.63;7.38;;;12.30;99.90;;;;;;5017435;28;20191;-76
2022/11/15 02:26:52;;;;;;;7.10;6.38;;;12.20;99.90;;;;;;5006292;28;20227;-76
2022/11/15 02:30:00;;;;;;;8.82;7.13;;;12.20;99.90;;;;;;5002216;28;20378;-76
2022/11/15 02:32:52;;;;;;;7.10;6.23;;;12.20;99.90;;;;;;5010722;28;20210;-76
2022/11/15 02:35:46;;;;;;;7.20;6.50;;;12.20;99.90;;;;;;5008050;28;20242;-75
2022/11/15 02:38:41;;;;;;;7.20;6.30;;;12.20;99.90;;;;;;5004274;28;20203;-76
2022/11/15 02:41:36;;;;;;;7.20;6.43;;;12.30;99.90;;;;;;5013010;28;20203;-76
2022/11/15 02:44:26;;;;;;;7.30;6.50;;;12.30;99.90;;;;;;5024114;28;20195;-78
2022/11/15 02:47:17;;;;;;;7.87;5.80;;;12.30;99.90;;;;;;5006460;28;20210;-76
2022/11/15 02:50:09;;;;;;;7.93;5.87;;;12.30;99.90;;;;;;5010566;28;20203;-76
2022/11/15 02:52:56;;;;;;;7.90;6.40;;;12.30;99.90;;;;;;5008306;28;20219;-75
2022/11/15 02:55:47;;;;;;;7.40;5.93;;;12.30;99.90;;;;;;5014983;28;20225;-76
2022/11/15 02:59:12;;;;;;;8.25;6.30;;;12.30;99.90;;;;;;5006063;28;20684;-76
2022/11/15 03:02:15;;;;;;;7.72;6.63;;;12.30;99.90;;;;;;5010287;28;20199;-76
2022/11/15 03:05:11;;;;;;;6.80;6.10;;;12.30;99.90;;;;;;5002065;28;20222;-76
2022/11/15 03:08:04;;;;;;;9.35;7.10;;;12.30;99.90;;;;;;5006158;28;20672;-75
2022/11/15 03:11:01;;;;;;;8.32;6.93;;;12.20;99.90;;;;;;5032901;28;20680;-76
2022/11/15 03:13:53;;;;;;;8.57;7.17;;;12.30;99.90;;;;;;5000662;28;20218;-76
2022/11/15 03:16:46;;;;;;;8.83;7.47;;;12.30;99.90;;;;;;5001144;28;20234;-76
2022/11/15 03:19:36;;;;;;;9.23;7.23;;;12.30;99.90;;;;;;5010181;28;20688;-77
2022/11/15 03:22:27;;;;;;;11.07;7.57;;;12.30;99.90;;;;;;5002648;28;20207;-75
2022/11/15 03:25:18;;;;;;;7.97;6.60;;;12.30;99.90;;;;;;5004081;28;20243;-75
2022/11/15 03:28:07;;;;;;;10.80;7.20;;;12.30;99.90;;;;;;5007142;28;20214;-76
2022/11/15 03:30:57;;;;;;;9.10;7.20;;;12.30;99.90;;;;;;5000570;28;20210;-75
2022/11/15 03:33:44;;;;;;;8.37;7.03;;;12.30;99.90;;;;;;5004311;28;20216;-77
2022/11/15 03:36:34;;;;;;;8.17;7.33;;;12.30;99.90;;;;;;5003606;28;20226;-76
2022/11/15 03:39:22;;;;;;;7.63;6.83;;;12.40;99.90;;;;;;5008824;28;20208;-76
2022/11/15 03:42:18;;;;;;;9.83;7.63;;;12.40;99.90;;;;;;5009632;28;20206;-76
2022/11/15 03:45:13;;;;;;;13.20;7.18;;;12.40;99.90;;;;;;5016825;28;20238;-76
2022/11/15 03:48:03;;;;;;;11.30;8.00;;;12.40;99.90;;;;;;5004419;28;20195;-76
2022/11/15 03:50:50;;;;;;;8.77;7.13;;;12.50;99.90;;;;;;5005038;28;20203;-76
2022/11/15 03:53:35;;;;;;;9.15;6.82;;;12.50;99.90;;;;;;4998555;28;20219;-76
2022/11/15 03:56:23;;;;;;;8.07;6.70;;;12.50;99.90;;;;;;5005375;28;20720;-76
2022/11/15 03:59:09;;;;;;;9.63;6.60;;;12.50;99.90;;;;;;5004583;28;20203;-75
2022/11/15 04:01:55;;;;;;;7.73;6.00;;;12.50;99.90;;;;;;5010469;28;20198;-78
2022/11/15 04:04:46;;;;;;;7.60;6.43;;;12.50;99.90;;;;;;5010099;28;20219;-76
2022/11/15 04:07:32;;;;;;;8.90;6.40;;;12.50;99.90;;;;;;5006728;28;20208;-75
2022/11/15 04:10:19;;;;;;;7.27;6.13;;;12.50;99.90;;;;;;5035744;28;20226;-76
2022/11/15 04:13:06;;;;;;;7.57;6.57;;;12.50;99.90;;;;;;4997885;28;20232;-76
2022/11/15 04:15:53;;;;;;;7.07;6.40;;;12.50;99.90;;;;;;5002829;28;20238;-76
2022/11/15 04:18:39;;;;;;;7.20;6.43;;;12.40;99.90;;;;;;5011095;28;20207;-75
2022/11/15 04:24:28;;;;;;;8.00;7.20;;;12.50;99.90;;;;;;5011496;28;20191;-79
2022/11/15 04:27:14;;;;;;;8.18;6.53;;;12.40;99.90;;;;;;5040529;28;20206;-76
2022/11/15 04:30:02;;;;;;;9.93;6.43;;;12.40;99.90;;;;;;5005145;28;20199;-75
2022/11/15 04:32:48;;;;;;;8.25;6.07;;;12.40;99.90;;;;;;5003968;28;20214;-76
2022/11/15 04:35:34;;;;;;;7.35;6.60;;;12.50;99.90;;;;;;5004802;28;20226;-78
2022/11/15 04:38:20;;;;;;;9.03;7.00;;;12.50;99.90;;;;;;5002976;28;20211;-77
2022/11/15 04:41:06;;;;;;;8.47;6.67;;;12.50;99.90;;;;;;5005552;28;20206;-77
2022/11/15 04:43:52;;;;;;;8.00;7.13;;;12.50;99.90;;;;;;5015036;28;20199;-77
2022/11/15 04:46:39;;;;;;;7.57;6.77;;;12.50;99.90;;;;;;5029293;28;20223;-75
2022/11/15 04:49:25;;;;;;;8.93;6.53;;;12.50;99.90;;;;;;5006597;28;20562;-78
2022/11/15 04:52:11;;;;;;;8.23;6.53;;;12.50;99.90;;;;;;5001170;28;20195;-76
2022/11/15 04:55:15;;;;;;;8.20;6.67;;;12.60;99.90;;;;;;5020245;28;20227;-76
2022/11/15 04:58:01;;;;;;;10.82;6.97;;;12.60;99.90;;;;;;5003771;28;20194;-76
2022/11/15 05:00:47;;;;;;;9.10;7.03;;;12.60;99.90;;;;;;5004660;28;20199;-76
2022/11/15 05:06:38;;;;;;;8.17;7.03;;;12.60;99.90;;;;;;5003911;28;20222;-76
2022/11/15 05:09:25;;;;;;;8.23;6.65;;;12.60;99.90;;;;;;5022154;28;20233;-76
2022/11/15 05:12:10;;;;;;;7.93;6.55;;;12.60;99.90;;;;;;4998703;28;20212;-76
2022/11/15 05:14:56;;;;;;;7.87;7.00;;;12.60;99.90;;;;;;5011114;28;20235;-76
2022/11/15 05:17:43;;;;;;;9.90;7.13;;;12.60;99.90;;;;;;5007536;28;20203;-76
2022/11/15 05:20:30;;;;;;;8.10;6.80;;;12.70;99.90;;;;;;5017784;28;20198;-75
2022/11/15 05:23:16;;;;;;;9.20;7.15;;;12.70;99.90;;;;;;5021086;28;20191;-77
2022/11/15 05:26:03;;;;;;;7.90;7.10;;;12.70;99.90;;;;;;5021714;28;20219;-78
2022/11/15 05:28:54;;;;;;;8.40;6.90;;;12.70;99.90;;;;;;5007280;28;20203;-78
2022/11/15 05:31:41;;;;;;;11.32;7.13;;;12.60;99.90;;;;;;5006577;28;20211;-76
2022/11/15 05:34:27;;;;;;;11.05;7.35;;;12.70;99.90;;;;;;5008946;28;20226;-75
2022/11/15 05:37:15;;;;;;;8.50;6.80;;;12.70;99.90;;;;;;5015988;28;20223;-76
2022/11/15 05:40:01;;;;;;;7.47;6.78;;;12.70;99.90;;;;;;5016056;28;20200;-75
2022/11/15 05:42:49;;;;;;;8.67;7.30;;;12.70;99.90;;;;;;5013338;28;20215;-75
2022/11/15 05:45:35;;;;;;;7.03;6.32;;;12.70;99.90;;;;;;5018344;28;20235;-75
2022/11/15 05:48:22;;;;;;;8.63;6.63;;;12.70;99.90;;;;;;5009852;28;20203;-76
2022/11/15 05:51:08;;;;;;;7.93;7.13;;;12.70;99.90;;;;;;5002952;28;20203;-76
2022/11/15 05:53:57;;;;;;;7.88;7.07;;;12.70;99.90;;;;;;5014922;28;20214;-76
2022/11/15 05:56:44;;;;;;;8.10;7.07;;;12.70;99.90;;;;;;4998607;28;20231;-77
2022/11/15 05:59:31;;;;;;;8.45;6.65;;;12.70;99.90;;;;;;5011423;28;20198;-76
2022/11/15 06:02:16;;;;;;;7.85;7.15;;;12.70;99.90;;;;;;5024781;28;20207;-76
2022/11/15 06:05:16;;;;;;;6.95;6.13;;;12.70;99.90;;;;;;5005329;28;20223;-76
2022/11/15 06:08:04;;;;;;;7.78;6.53;;;12.70;99.90;;;;;;5019481;28;20211;-78
2022/11/15 06:10:52;;;;;;;8.93;7.00;;;12.70;99.90;;;;;;5001677;28;20199;-76
2022/11/15 06:13:38;;;;;;;7.60;6.90;;;12.70;99.90;;;;;;5012384;28;20572;-76
2022/11/15 06:16:24;;;;;;;6.97;6.28;;;12.70;99.90;;;;;;4997764;28;20243;-76
2022/11/15 06:19:13;;;;;;;8.93;6.53;;;12.70;99.90;;;;;;5013480;28;20211;-76
2022/11/15 06:22:10;;;;;;;7.63;6.10;;;12.60;99.90;;;;;;5002083;28;20231;-76
2022/11/15 06:24:56;;;;;;;7.32;5.97;;;12.50;99.90;;;;;;4998656;28;20578;-76
2022/11/15 06:27:43;;;;;;;8.20;5.97;;;12.50;99.90;;;;;;5014161;28;20207;-77
2022/11/15 06:30:29;;;;;;;6.85;6.15;;;12.50;99.90;;;;;;5014554;28;20191;-77
2022/11/15 06:33:16;;;;;;;6.95;6.30;;;12.50;99.90;;;;;;5013625;28;20231;-82
2022/11/15 06:36:03;;;;;;;7.22;6.53;;;12.50;99.90;;;;;;5013955;28;20238;-82
2022/11/15 06:38:49;;;;;;;7.65;6.07;;;12.50;99.90;;;;;;5039439;28;20204;-82
2022/11/15 06:41:35;;;;;;;7.57;6.10;;;12.50;99.90;;;;;;5011991;28;20199;-81
2022/11/15 06:44:24;;;;;;;6.03;5.43;;;12.60;99.90;;;;;;5023267;28;20190;-82
2022/11/15 06:47:48;;;;;;;5.43;4.95;;;12.60;99.90;;;;;;5013104;28;20208;-81
2022/11/15 06:50:39;;;;;;;6.00;4.68;;;12.70;99.90;;;;;;5022704;28;20194;-81
2022/11/15 06:53:25;;;;;;;5.60;4.72;;;12.70;99.90;;;;;;5025813;28;20223;-81
2022/11/15 06:56:12;;;;;;;5.00;4.53;;;12.70;99.90;;;;;;5017429;28;20235;-81
2022/11/15 06:58:58;;;;;;;4.82;4.43;;;12.80;99.90;;;;;;5021481;28;20203;-81
2022/11/15 07:01:50;;;;;;;4.32;3.92;;;12.80;99.90;;;;;;5016146;28;20203;-80
2022/11/15 07:04:39;;;;;;;8.52;3.70;;;12.80;99.90;;;;;;5013651;28;20199;-81
2022/11/15 07:07:25;;;;;;;4.07;3.67;;;13.50;99.90;;;;;;5017841;28;20196;-82
2022/11/15 07:10:11;;;;;;;6.05;3.88;;;13.40;99.90;;;;;;5024038;28;20210;-82
2022/11/15 07:13:05;;;;;;;5.53;3.70;;;13.10;99.90;;;;;;5007942;28;20207;-82
2022/11/15 07:15:51;;;;;;;3.75;3.03;;;13.10;99.90;;;;;;5014735;28;20218;-84
2022/11/15 07:18:40;;;;;;;4.03;3.38;;;13.00;99.90;;;;;;5015788;28;20209;-84
2022/11/15 07:21:26;;;;;;;3.70;3.33;;;13.10;99.90;;;;;;5019773;28;20218;-82
2022/11/15 07:24:12;;;;;;;4.70;3.45;;;13.10;99.90;;;;;;5035169;28;20192;-82
2022/11/15 07:26:58;;;;;;;4.97;3.55;;;13.00;99.90;;;;;;5019684;28;20198;-83
2022/11/15 07:29:45;;;;;;;3.42;3.13;;;13.10;99.90;;;;;;5011987;28;20770;-83
2022/11/15 07:32:31;;;;;;;3.58;3.05;;;13.00;99.90;;;;;;5018138;28;20206;-84
2022/11/15 07:35:19;;;;;;;3.05;2.75;;;13.00;99.90;;;;;;5014562;28;20270;-84
2022/11/15 07:38:05;;;;;;;4.35;2.88;;;13.10;99.90;;;;;;5023613;28;20202;-84
2022/11/15 07:40:58;;;;;;;3.90;2.70;;;13.10;99.90;;;;;;5008753;28;20208;-84
2022/11/15 07:43:44;;;;;;;6.30;3.13;;;13.00;99.90;;;;;;5011028;28;20202;-81
2022/11/15 07:46:30;;;;;;;2.63;2.33;;;13.00;99.90;;;;;;5017504;28;20237;-81
2022/11/15 07:49:16;;;;;;;2.67;2.40;;;13.00;99.90;;;;;;5025410;28;20198;-81
2022/11/15 07:52:03;;;;;;;2.63;2.30;;;13.00;99.90;;;;;;5009446;28;20207;-84
2022/11/15 07:54:49;;;;;;;2.92;2.50;;;12.90;99.90;;;;;;5019501;28;20596;-84
2022/11/15 07:57:35;;;;;;;3.38;2.67;;;12.90;99.90;;;;;;5024396;28;20196;-84
2022/11/15 08:00:23;;;;;;;2.53;2.33;;;12.80;99.90;;;;;;5007589;28;20192;-84
2022/11/15 08:03:11;;;;;;;2.95;2.63;;;12.80;99.90;;;;;;5018242;28;20202;-84
2022/11/15 08:05:56;;;;;;;2.80;2.50;;;12.80;99.90;;;;;;5009553;28;20228;-83
2022/11/15 08:08:44;;;;;;;2.60;2.40;;;12.80;99.90;;;;;;5018965;28;20202;-84
2022/11/15 08:11:30;;;;;;;3.78;3.13;;;12.80;99.90;;;;;;5014860;28;20269;-83
2022/11/15 08:14:16;;;;;;;4.55;2.75;;;12.80;99.90;;;;;;5019596;28;20215;-84
2022/11/15 08:17:03;;;;;;;4.00;2.53;;;12.80;99.90;;;;;;5017338;28;20210;-83
2022/11/15 08:19:49;;;;;;;2.42;2.20;;;12.80;99.90;;;;;;5013087;28;20210;-84
2022/11/15 08:22:35;;;;;;;2.42;2.20;;;12.80;99.90;;;;;;5017021;28;20199;-84
2022/11/15 08:25:26;;;;;;;2.83;2.40;;;12.80;99.90;;;;;;5017255;28;20218;-83
2022/11/15 08:28:21;;;;;;;3.63;2.42;;;13.10;99.90;;;;;;5010345;28;20211;-83
2022/11/15 08:31:07;;;;;;;2.42;2.22;;;13.40;99.90;;;;;;5012339;28;20195;-83
2022/11/15 08:33:53;;;;;;;2.78;2.13;;;13.30;99.90;;;;;;5011383;28;20207;-84
2022/11/15 08:36:41;;;;;;;3.08;2.20;;;13.00;99.90;;;;;;5000587;28;20582;-84
2022/11/15 08:39:27;;;;;;;3.25;2.03;;;12.90;99.90;;;;;;5001363;28;20199;-84
2022/11/15 08:42:14;;;;;;;2.50;2.30;;;13.00;99.90;;;;;;5011803;28;20207;-84
2022/11/15 08:45:00;;;;;;;2.95;2.10;;;13.00;99.90;;;;;;5009310;28;20231;-84
2022/11/15 08:47:47;;;;;;;3.70;2.25;;;13.00;99.90;;;;;;5009694;28;20210;-84
2022/11/15 08:50:33;;;;;;;2.08;1.90;;;13.00;99.90;;;;;;5013943;28;20214;-85
2022/11/15 08:53:20;;;;;;;3.00;2.20;;;13.00;99.90;;;;;;5010564;28;20198;-85
2022/11/15 08:56:09;;;;;;;2.38;2.05;;;13.00;99.90;;;;;;5018904;28;20230;-84
2022/11/15 08:58:56;;;;;;;2.25;1.80;;;13.00;99.90;;;;;;5021096;28;20230;-84
2022/11/15 09:01:42;;;;;;;3.25;1.75;;;13.10;99.90;;;;;;5007198;28;20203;-84
2022/11/15 09:04:28;;;;;;;2.03;1.92;;;13.10;99.90;;;;;;5017571;28;20195;-84
2022/11/15 09:07:14;;;;;;;3.08;1.70;;;13.10;99.90;;;;;;5016681;28;20207;-84
2022/11/15 09:10:01;;;;;;;2.38;1.60;;;13.10;99.90;;;;;;5013104;28;20218;-85
2022/11/15 09:12:48;;;;;;;1.77;1.60;;;13.10;99.90;;;;;;5009937;28;20203;-85
2022/11/15 09:15:35;;;;;;;1.92;1.77;;;13.10;99.90;;;;;;5015632;28;20230;-84
2022/11/15 09:18:22;;;;;;;1.80;1.67;;;13.10;99.90;;;;;;5024953;28;20220;-84
2022/11/15 09:21:09;;;;;;;1.77;1.40;;;13.10;99.90;;;;;;5011914;28;20202;-83
2022/11/15 09:23:54;;;;;;;1.33;1.23;;;13.10;99.90;;;;;;5009098;28;20210;-84
2022/11/15 09:26:44;;;;;;;3.72;1.38;;;13.10;99.90;;;;;;5005010;28;20235;-83
2022/11/15 09:29:31;;;;;;;1.38;1.20;;;13.10;99.90;;;;;;5013537;28;20206;-83
2022/11/15 09:32:18;;;;;;;1.45;1.30;;;13.20;99.90;;;;;;5016103;28;20209;-83
2022/11/15 09:35:04;;;;;;;1.95;1.63;;;13.20;99.90;;;;;;5010794;28;20223;-83
2022/11/15 09:37:58;;;;;;;2.38;1.30;;;13.30;99.90;;;;;;5022085;28;20203;-82
2022/11/15 09:40:47;;;;;;;1.40;0.98;;;13.30;99.90;;;;;;5024711;28;20211;-82
2022/11/15 09:43:43;;;;;;;1.40;1.20;;;13.20;99.90;;;;;;5030866;28;20802;-81
2022/11/15 09:46:38;;;;;;;1.92;1.20;;;13.30;99.90;;;;;;5010007;28;20242;-81
2022/11/15 09:49:26;;;;;;;2.00;1.30;;;13.30;99.90;;;;;;5032389;28;20208;-81
2022/11/15 09:52:13;;;;;;;1.45;1.00;;;13.40;99.90;;;;;;4993102;28;20205;-81
2022/11/15 09:54:48;;;;;;;2.85;1.40;;;13.40;99.90;;;;;;5002468;28;20225;-81
2022/11/15 09:57:21;;;;;;;1.35;1.23;;;13.50;99.90;;;;;;4993889;28;20198;-82
2022/11/15 10:00:01;;;;;;;2.83;1.50;;;13.60;99.90;;;;;;5003358;28;20210;-80
2022/11/15 10:02:45;;;;;;;1.83;1.50;;;13.80;99.90;;;;;;5000297;28;20199;-80
2022/11/15 10:05:19;;;;;;;1.40;1.00;;;14.00;99.90;;;;;;5040305;28;20227;-81
2022/11/15 10:07:55;;;;;;;3.10;1.45;;;13.90;99.90;;;;;;5013150;28;20184;-80
2022/11/15 10:10:29;;;;;;;2.28;1.40;;;13.90;99.90;;;;;;4993936;28;20220;-78
2022/11/15 10:12:56;;;;;;;1.75;1.10;;;13.80;99.90;;;;;;5004119;28;20699;-79
2022/11/15 10:15:24;;;;;;;1.58;1.00;;;13.80;99.90;;;;;;4990037;28;20235;-78
2022/11/15 10:18:18;;;;;;;1.10;0.98;;;13.70;99.90;;;;;;4997269;28;20200;-78
2022/11/15 10:20:53;;;;;;;2.83;1.13;;;13.80;99.90;;;;;;5018654;28;20207;-79
2022/11/15 10:23:22;;;;;;;1.00;0.90;;;13.90;99.90;;;;;;4985854;28;20204;-78
2022/11/15 10:25:54;;;;;;;2.08;0.80;;;13.90;99.90;;;;;;4985997;28;20579;-79
2022/11/15 10:28:28;;;;;;;2.63;0.98;;;14.00;99.90;;;;;;4998691;28;20197;-78
2022/11/15 10:30:57;;;;;;;2.35;0.73;;;14.00;99.90;;;;;;5037165;28;20183;-79
2022/11/15 10:33:36;;;;;;;1.10;0.90;;;14.00;99.90;;;;;;4978225;28;20196;-79
2022/11/15 10:36:22;;;;;;;1.20;0.70;;;14.00;99.90;;;;;;4987341;28;20215;-79
2022/11/15 10:38:57;;;;;;;2.88;0.80;;;14.20;99.90;;;;;;4982806;28;20192;-79
2022/11/15 10:41:34;;;;;;;1.70;0.80;;;14.00;99.90;;;;;;5005938;28;20675;-78
2022/11/15 10:44:23;;;;;;;1.73;1.38;;;14.00;99.90;;;;;;5000080;28;20202;-78
2022/11/15 10:47:07;;;;;;;1.52;1.05;;;14.10;99.90;;;;;;4988506;28;20208;-78
2022/11/15 10:49:35;;;;;;;2.08;1.38;;;14.10;99.90;;;;;;5030638;28;20661;-78
2022/11/15 10:52:16;;;;;;;1.17;0.80;;;14.20;99.90;;;;;;4983245;28;20196;-78
2022/11/15 10:54:47;;;;;;;2.60;1.10;;;14.40;99.90;;;;;;5009235;28;20203;-79
2022/11/15 10:57:17;;;;;;;1.60;1.30;;;14.60;99.90;;;;;;4988920;28;20208;-78
2022/11/15 10:59:48;;;;;;;1.67;0.85;;;15.10;99.90;;;;;;4982043;28;20204;-79
2022/11/15 11:02:34;;;;;;;1.92;0.88;;;15.00;99.70;;;;;;4982496;28;20200;-78
2022/11/15 11:05:02;;;;;;;1.27;0.88;;;15.00;99.30;;;;;;4985181;28;20219;-79
2022/11/15 11:07:33;;;;;;;1.45;1.10;;;15.30;99.40;;;;;;4987504;28;20201;-79
2022/11/15 11:10:03;;;;;;;2.13;1.30;;;15.50;99.10;;;;;;4986543;28;20199;-80
2022/11/15 11:12:33;;;;;;;1.67;0.88;;;15.50;98.10;;;;;;4983785;28;20223;-79
2022/11/15 11:15:03;;;;;;;1.35;1.08;;;15.30;98.70;;;;;;4987541;28;20588;-79
2022/11/15 11:17:44;;;;;;;1.10;0.90;;;15.60;98.10;;;;;;5071042;28;20204;-79
2022/11/15 11:20:20;;;;;;;1.42;1.02;;;15.60;98.00;;;;;;5005718;28;20681;-80
2022/11/15 11:23:02;;;;;;;3.67;1.45;;;15.70;95.40;;;;;;4986056;28;20677;-79
2022/11/15 11:29:52;;;;;;;1.60;1.08;;;16.00;92.60;;;;;;4929747;28;20690;-79
2022/11/15 11:32:49;;;;;;;2.72;0.90;;;16.10;93.20;;;;;;4966034;28;20206;-80
2022/11/15 11:35:23;;;;;;;1.20;0.77;;;16.20;92.10;;;;;;5016186;28;20222;-80
2022/11/15 11:37:54;;;;;;;1.40;0.70;;;15.90;92.40;;;;;;5049832;28;20217;-80
2022/11/15 11:40:30;;;;;;;1.77;0.77;;;16.40;92.50;;;;;;5054060;28;20206;-80
2022/11/15 11:43:03;;;;;;;1.35;0.88;;;16.20;92.40;;;;;;5049464;28;20194;-80
2022/11/15 11:45:56;;;;;;;1.20;0.95;;;15.80;92.30;;;;;;5054101;28;20214;-80
2022/11/15 11:48:39;;;;;;;1.48;0.60;;;16.00;92.10;;;;;;5049984;28;20205;-81
2022/11/15 11:51:14;;;;;;;0.82;0.75;;;16.00;91.50;;;;;;5056803;28;20199;-80
2022/11/15 11:53:48;;;;;;;2.00;0.80;;;16.30;90.90;;;;;;5056439;28;20684;-81
2022/11/15 11:56:23;;;;;;;1.13;0.65;;;16.30;90.30;;;;;;5066879;28;20225;-81
2022/11/15 11:58:54;;;;;;;1.02;0.70;;;16.20;90.90;;;;;;5054109;28;20197;-80
2022/11/15 12:01:25;;;;;;;1.35;0.80;;;16.40;90.10;;;;;;5049457;28;20210;-80
2022/11/15 12:03:58;;;;;;;0.88;0.68;;;16.90;85.80;;;;;;5056049;28;20186;-82
2022/11/15 12:06:32;;;;;;;1.48;0.50;;;16.90;86.50;;;;;;5056015;28;20225;-80
2022/11/15 12:09:07;;;;;;;1.02;0.90;;;17.60;84.40;;;;;;5055686;28;20190;-80
2022/11/15 12:11:53;;;;;;;1.05;0.85;;;16.90;83.40;;;;;;5058212;28;20193;-79
2022/11/15 12:14:31;;;;;;;0.63;0.50;;;16.90;84.60;;;;;;5044432;28;20191;-81
2022/11/15 12:17:00;;;;;;;1.15;0.75;;;16.70;84.30;;;;;;5058092;28;20198;-81
2022/11/15 12:19:28;;;;;;;1.45;0.73;;;17.00;84.00;;;;;;5051787;28;20202;-80
2022/11/15 12:22:01;;;;;;;0.90;0.70;;;17.60;84.40;;;;;;5076437;22;20693;-81
2022/11/15 12:24:35;;;;;;;1.02;0.52;;;17.10;78.70;;;;;;4980888;28;20208;-82
2022/11/15 12:27:08;;;;;;;0.95;0.73;;;16.80;75.50;;;;;;4981809;28;20225;-81
2022/11/15 12:29:40;;;;;;;0.80;0.70;;;16.70;74.10;;;;;;4990219;28;20219;-80
2022/11/15 12:32:20;;;;;;;1.85;0.68;;;16.50;73.70;;;;;;4986023;28;20226;-82
2022/11/15 12:34:50;;;;;;;0.85;0.60;;;17.00;75.30;;;;;;4959103;28;20205;-82
2022/11/15 12:37:49;;;;;;;0.98;0.65;;;17.20;73.50;;;;;;4988749;28;20204;-82
2022/11/15 12:40:24;;;;;;;1.15;0.70;;;16.80;73.00;;;;;;4906595;29;20632;-83
2022/11/15 12:43:01;;;;;;;3.03;1.00;;;17.00;73.20;;;;;;4978457;28;20233;-82
2022/11/15 12:45:31;;;;;;;0.85;0.57;;;17.00;71.60;;;;;;4957192;28;20206;-83
2022/11/15 12:49:01;;;;;;;0.80;0.57;;;16.80;71.10;;;;;;4958272;28;20225;-83
2022/11/15 12:52:08;;;;;;;1.17;0.60;;;16.80;71.90;;;;;;4964357;28;20217;-82
2022/11/15 12:55:01;;;;;;;0.75;0.30;;;16.60;73.10;;;;;;4959690;28;20196;-82
2022/11/15 12:57:40;;;;;;;0.80;0.55;;;16.50;73.10;;;;;;4957583;28;20194;-82
2022/11/15 13:00:45;;;;;;;2.13;0.70;;;16.50;73.70;;;;;;4965995;28;20201;-83
2022/11/15 13:03:29;;;;;;;1.15;0.65;;;16.70;74.70;;;;;;4954767;28;20225;-83
2022/11/15 13:06:06;;;;;;;1.55;0.70;;;16.70;74.40;;;;;;4972386;28;20569;-83
2022/11/15 13:08:50;;;;;;;0.95;0.52;;;17.00;74.30;;;;;;4952699;28;20201;-82
2022/11/15 13:11:50;;;;;;;1.75;0.90;;;16.90;75.40;;;;;;4955649;28;20205;-82
2022/11/15 13:14:46;;;;;;;0.90;0.57;;;16.60;77.00;;;;;;4960573;28;20201;-82
2022/11/15 13:17:33;;;;;;;3.00;0.80;;;16.50;78.90;;;;;;4970002;28;20204;-83
2022/11/15 13:20:17;;;;;;;1.50;0.70;;;17.30;75.70;;;;;;4959666;28;20190;-84
2022/11/15 13:22:54;;;;;;;0.70;0.70;;;17.30;76.40;;;;;;4963533;28;20236;-83
2022/11/15 13:26:11;;;;;;;1.95;0.68;;;17.00;76.30;;;;;;4968274;28;20208;-83
2022/11/15 13:28:43;;;;;;;2.63;0.60;;;17.00;77.10;;;;;;4975785;28;20554;-84
2022/11/15 13:31:41;;;;;;;2.63;0.70;;;16.80;77.10;;;;;;4995923;28;20216;-84
2022/11/15 13:34:28;;;;;;;1.48;0.57;;;16.60;77.30;;;;;;4950034;28;20197;-84
2022/11/15 13:36:57;;;;;;;3.08;0.80;;;16.60;77.80;;;;;;4956121;28;20194;-83
2022/11/15 13:39:29;;;;;;;2.45;0.80;;;16.30;78.40;;;;;;4980531;28;20221;-84
2022/11/15 13:41:57;;;;;;;3.08;0.65;;;16.40;79.60;;;;;;4974196;28;20213;-85
2022/11/15 13:44:27;;;;;;;1.00;0.57;;;16.50;81.10;;;;;;4953451;28;20571;-85
2022/11/15 13:47:07;;;;;;;1.95;0.68;;;16.40;80.70;;;;;;4959640;28;20216;-84
2022/11/15 13:49:37;;;;;;;3.00;1.00;;;16.20;82.20;;;;;;4974990;28;20201;-84
2022/11/15 13:52:08;;;;;;;1.73;0.50;;;16.30;83.50;;;;;;4985204;28;21197;-83
2022/11/15 13:54:40;;;;;;;3.13;0.85;;;16.30;83.10;;;;;;4971187;28;20205;-84
2022/11/15 13:57:13;;;;;;;2.40;0.90;;;16.10;83.70;;;;;;4963511;28;20198;-83
2022/11/15 13:59:47;;;;;;;1.02;0.63;;;16.10;85.40;;;;;;4975829;28;20209;-82
2022/11/15 14:02:26;;;;;;;2.90;0.82;;;16.00;86.10;;;;;;4959980;28;20225;-81
2022/11/15 14:04:57;;;;;;;3.70;0.80;;;15.60;87.70;;;;;;4961494;28;20198;-82
2022/11/15 14:07:28;;;;;;;1.05;0.60;;;15.40;89.60;;;;;;4975664;28;20719;-82
2022/11/15 14:10:17;;;;;;;2.75;0.70;;;15.20;90.60;;;;;;4953883;28;20205;-82
2022/11/15 14:12:52;;;;;;;2.13;1.00;;;15.20;91.20;;;;;;5024985;28;20234;-82
2022/11/15 14:15:28;;;;;;;1.75;0.75;;;15.20;91.80;;;;;;4955453;28;20205;-82
2022/11/15 14:17:57;;;;;;;4.25;1.25;;;15.20;92.20;;;;;;4996879;28;20551;-83
2022/11/15 14:20:34;;;;;;;3.17;0.90;;;15.00;93.00;;;;;;4985249;28;20205;-83
2022/11/15 14:23:03;;;;;;;3.13;1.67;;;15.00;93.40;;;;;;4954798;28;20225;-82
2022/11/15 14:25:33;;;;;;;3.35;1.20;;;14.90;93.90;;;;;;4953122;28;20208;-82
2022/11/15 14:28:15;;;;;;;4.45;1.13;;;14.90;94.60;;;;;;4955420;28;20218;-82
2022/11/15 14:30:46;;;;;;;3.97;1.02;;;14.80;95.20;;;;;;4980681;28;20198;-82